createdAt,value
2022-08-26T00:01:56.739Z,4.30
2022-08-26T00:04:20.333Z,5.05
2022-08-26T00:06:46.156Z,4.33
2022-08-26T00:09:09.907Z,5.95
2022-08-26T00:11:33.224Z,5.05
2022-08-26T00:13:58.047Z,5.88
2022-08-26T00:16:21.660Z,4.43
2022-08-26T00:18:45.001Z,4.13
2022-08-26T00:21:08.554Z,3.53
2022-08-26T00:23:31.839Z,5.47
2022-08-26T00:25:55.383Z,4.20
2022-08-26T00:28:20.160Z,5.00
2022-08-26T00:30:48.198Z,4.57
2022-08-26T00:33:14.868Z,4.00
2022-08-26T00:35:38.160Z,3.95
2022-08-26T00:38:07.553Z,4.80
2022-08-26T00:40:32.676Z,5.10
2022-08-26T00:42:56.537Z,4.35
2022-08-26T00:45:19.782Z,5.75
2022-08-26T00:47:47.310Z,5.57
2022-08-26T00:50:13.118Z,4.35
2022-08-26T00:52:38.858Z,4.38
2022-08-26T00:55:04.510Z,3.83
2022-08-26T00:57:27.947Z,4.95
2022-08-26T00:59:54.397Z,3.72
2022-08-26T01:02:20.787Z,4.03
2022-08-26T01:04:46.367Z,3.95
2022-08-26T01:07:10.791Z,4.32
2022-08-26T01:09:34.145Z,4.13
2022-08-26T01:11:58.531Z,4.65
2022-08-26T01:14:22.254Z,4.43
2022-08-26T01:16:45.556Z,4.43
2022-08-26T01:19:14.327Z,4.63
2022-08-26T01:21:42.186Z,4.15
2022-08-26T01:24:07.271Z,6.40
2022-08-26T01:26:37.518Z,4.80
2022-08-26T01:29:01.414Z,3.58
2022-08-26T01:31:27.047Z,5.03
2022-08-26T01:33:53.989Z,5.60
2022-08-26T01:36:17.398Z,4.30
2022-08-26T01:38:41.107Z,4.28
2022-08-26T01:41:16.181Z,4.23
2022-08-26T01:43:44.326Z,3.40
2022-08-26T01:46:07.668Z,4.70
2022-08-26T01:48:35.320Z,3.80
2022-08-26T01:50:58.722Z,4.65
2022-08-26T01:53:22.656Z,3.35
2022-08-26T01:55:47.152Z,3.85
2022-08-26T01:58:17.665Z,4.57
2022-08-26T02:00:42.185Z,4.80
2022-08-26T02:03:21.632Z,4.00
2022-08-26T02:05:51.380Z,4.90
2022-08-26T02:08:15.184Z,4.47
2022-08-26T02:10:47.371Z,4.43
2022-08-26T02:15:35.357Z,3.05
2022-08-26T02:17:58.901Z,3.25
2022-08-26T02:20:22.342Z,4.70
2022-08-26T02:22:47.209Z,4.68
2022-08-26T02:25:13.226Z,4.25
2022-08-26T02:27:36.638Z,5.32
2022-08-26T02:30:02.243Z,3.67
2022-08-26T02:32:27.931Z,3.95
2022-08-26T02:34:51.235Z,4.57
2022-08-26T02:37:15.289Z,4.38
2022-08-26T02:39:42.057Z,4.07
2022-08-26T02:44:28.878Z,4.32
2022-08-26T02:46:52.880Z,4.03
2022-08-26T02:49:19.482Z,4.38
2022-08-26T02:51:43.577Z,3.58
2022-08-26T02:54:06.981Z,5.00
2022-08-26T02:56:30.489Z,4.77
2022-08-26T02:58:53.751Z,5.03
2022-08-26T03:01:22.255Z,4.15
2022-08-26T03:03:45.616Z,3.75
2022-08-26T03:06:15.473Z,3.97
2022-08-26T03:08:39.352Z,4.43
2022-08-26T03:11:03.088Z,4.20
2022-08-26T03:13:26.491Z,4.47
2022-08-26T03:15:49.917Z,4.65
2022-08-26T03:18:13.374Z,3.78
2022-08-26T03:20:36.665Z,3.22
2022-08-26T03:23:01.434Z,4.15
2022-08-26T03:25:25.789Z,4.03
2022-08-26T03:27:49.181Z,3.83
2022-08-26T03:30:30.649Z,3.77
2022-08-26T03:32:54.051Z,4.38
2022-08-26T03:35:17.374Z,4.13
2022-08-26T03:37:40.913Z,3.05
2022-08-26T03:40:06.338Z,3.73
2022-08-26T03:42:29.744Z,3.47
2022-08-26T03:44:53.119Z,4.03
2022-08-26T03:47:17.254Z,3.63
2022-08-26T03:49:40.810Z,3.40
2022-08-26T03:52:04.745Z,5.32
2022-08-26T03:54:29.006Z,3.92
2022-08-26T03:56:54.094Z,3.78
2022-08-26T03:59:17.407Z,4.95
2022-08-26T04:01:41.041Z,4.82
2022-08-26T04:04:05.078Z,3.80
2022-08-26T04:06:30.901Z,4.63
2022-08-26T04:11:19.547Z,4.28
2022-08-26T04:13:44.342Z,3.90
2022-08-26T04:16:08.057Z,3.95
2022-08-26T04:18:36.962Z,3.72
2022-08-26T04:21:00.615Z,4.18
2022-08-26T04:23:25.233Z,2.80
2022-08-26T04:25:48.762Z,3.50
2022-08-26T04:30:39.907Z,3.05
2022-08-26T04:33:13.060Z,3.50
2022-08-26T04:35:37.176Z,4.70
2022-08-26T04:38:00.958Z,3.17
2022-08-26T04:40:24.674Z,4.78
2022-08-26T04:42:49.426Z,3.67
2022-08-26T04:45:14.149Z,4.00
2022-08-26T04:47:38.952Z,3.70
2022-08-26T04:50:02.273Z,3.83
2022-08-26T04:52:26.587Z,3.30
2022-08-26T04:54:51.541Z,4.82
2022-08-26T04:57:14.840Z,4.00
2022-08-26T04:59:39.551Z,3.90
2022-08-26T05:02:03.835Z,5.07
2022-08-26T05:04:30.614Z,3.10
2022-08-26T05:06:56.746Z,4.32
2022-08-26T05:09:23.089Z,4.20
2022-08-26T05:11:48.480Z,4.80
2022-08-26T05:14:15.231Z,4.82
2022-08-26T05:16:38.962Z,3.80
2022-08-26T05:19:04.430Z,4.45
2022-08-26T05:21:29.644Z,4.45
2022-08-26T05:23:54.807Z,3.83
2022-08-26T05:26:23.039Z,4.32
2022-08-26T05:28:46.803Z,4.10
2022-08-26T05:31:15.535Z,4.78
2022-08-26T05:33:41.408Z,4.15
2022-08-26T05:36:08.157Z,5.95
2022-08-26T05:38:34.844Z,4.65
2022-08-26T05:40:59.683Z,5.13
2022-08-26T05:43:25.022Z,4.25
2022-08-26T05:45:49.513Z,4.05
2022-08-26T05:48:13.496Z,5.22
2022-08-26T05:50:39.820Z,5.43
2022-08-26T05:53:03.201Z,5.32
2022-08-26T05:55:29.978Z,6.88
2022-08-26T05:57:53.608Z,4.65
2022-08-26T06:00:17.322Z,4.00
2022-08-26T06:02:40.819Z,4.68
2022-08-26T06:05:04.260Z,4.50
2022-08-26T06:07:44.833Z,5.05
2022-08-26T06:10:30.866Z,5.13
2022-08-26T06:12:53.721Z,6.30
2022-08-26T06:15:17.529Z,5.50
2022-08-26T06:17:40.906Z,5.35
2022-08-26T06:20:04.683Z,5.75
2022-08-26T06:22:45.906Z,4.93
2022-08-26T06:25:26.972Z,5.88
2022-08-26T06:27:50.951Z,4.95
2022-08-26T06:30:15.908Z,4.40
2022-08-26T06:32:40.179Z,5.00
2022-08-26T06:35:03.465Z,6.05
2022-08-26T06:37:26.991Z,3.87
2022-08-26T06:39:51.226Z,5.45
2022-08-26T06:44:38.271Z,4.90
2022-08-26T06:47:06.233Z,5.97
2022-08-26T06:49:29.609Z,5.38
2022-08-26T06:51:52.912Z,5.53
2022-08-26T06:54:16.319Z,5.13
2022-08-26T06:56:40.978Z,5.05
2022-08-26T06:59:04.658Z,5.60
2022-08-26T07:01:33.052Z,6.68
2022-08-26T07:03:58.463Z,6.25
2022-08-26T07:06:21.723Z,5.88
2022-08-26T07:08:45.150Z,6.17
2022-08-26T07:11:08.687Z,6.60
2022-08-26T07:13:32.035Z,6.00
2022-08-26T07:15:58.014Z,5.40
2022-08-26T07:18:26.348Z,6.45
2022-08-26T07:20:51.036Z,5.97
2022-08-26T07:23:14.376Z,4.80
2022-08-26T07:25:40.953Z,5.65
2022-08-26T07:28:05.489Z,5.65
2022-08-26T07:30:30.071Z,5.68
2022-08-26T07:32:53.362Z,5.78
2022-08-26T07:35:16.987Z,6.53
2022-08-26T07:37:41.935Z,5.15
2022-08-26T07:40:06.118Z,6.40
2022-08-26T07:42:30.256Z,5.47
2022-08-26T07:44:53.626Z,4.60
2022-08-26T07:47:24.686Z,5.43
2022-08-26T07:49:48.609Z,5.07
2022-08-26T07:52:16.277Z,5.65
2022-08-26T07:54:47.397Z,6.60
2022-08-26T07:57:10.680Z,5.28
2022-08-26T07:59:34.141Z,6.27
2022-08-26T08:01:59.227Z,7.88
2022-08-26T08:04:26.390Z,6.32
2022-08-26T08:06:50.297Z,5.55
2022-08-26T08:09:14.206Z,5.32
2022-08-26T08:11:41.459Z,9.27
2022-08-26T08:14:08.450Z,6.50
2022-08-26T08:16:32.314Z,7.32
2022-08-26T08:18:56.670Z,6.57
2022-08-26T08:21:23.901Z,5.40
2022-08-26T08:23:47.677Z,5.20
2022-08-26T08:26:11.659Z,5.25
2022-08-26T08:28:36.362Z,5.03
2022-08-26T08:30:59.738Z,5.00
2022-08-26T08:33:23.238Z,5.93
2022-08-26T08:35:46.844Z,5.88
2022-08-26T08:38:10.269Z,6.32
2022-08-26T08:40:33.900Z,5.82
2022-08-26T08:42:59.741Z,5.93
2022-08-26T08:45:36.283Z,6.18
2022-08-26T08:48:01.963Z,5.13
2022-08-26T08:50:27.699Z,6.00
2022-08-26T08:52:53.570Z,6.20
2022-08-26T08:55:18.243Z,8.02
2022-08-26T08:57:48.184Z,7.00
2022-08-26T09:00:18.222Z,5.50
2022-08-26T09:02:46.239Z,5.45
2022-08-26T09:05:14.992Z,5.60
2022-08-26T09:07:39.573Z,5.53
2022-08-26T09:10:05.477Z,5.22
2022-08-26T09:12:31.561Z,5.53
2022-08-26T09:14:57.737Z,5.70
2022-08-26T09:17:27.930Z,5.38
2022-08-26T09:19:53.857Z,6.68
2022-08-26T09:22:29.215Z,6.38
2022-08-26T09:24:52.635Z,5.50
2022-08-26T09:27:21.762Z,6.77
2022-08-26T09:29:45.557Z,6.47
2022-08-26T09:32:20.292Z,6.13
2022-08-26T09:34:56.424Z,7.60
2022-08-26T09:37:20.893Z,5.75
2022-08-26T09:39:44.309Z,6.20
2022-08-26T09:42:09.849Z,6.73
2022-08-26T09:44:33.260Z,6.10
2022-08-26T09:46:58.767Z,5.95
2022-08-26T09:49:35.872Z,5.65
2022-08-26T09:52:10.580Z,6.20
2022-08-26T09:54:34.205Z,6.38
2022-08-26T09:57:00.697Z,6.05
2022-08-26T09:59:30.858Z,8.07
2022-08-26T10:01:55.030Z,6.65
2022-08-26T10:04:22.496Z,6.03
2022-08-26T10:06:56.958Z,6.43
2022-08-26T10:09:22.704Z,5.90
2022-08-26T10:11:47.940Z,7.22
2022-08-26T10:14:14.994Z,6.43
2022-08-26T10:16:41.290Z,6.63
2022-08-26T10:19:06.417Z,6.05
2022-08-26T10:21:31.368Z,6.32
2022-08-26T10:23:56.071Z,6.30
2022-08-26T10:26:22.790Z,6.60
2022-08-26T10:28:49.585Z,5.85
2022-08-26T10:31:28.738Z,6.57
2022-08-26T10:33:56.662Z,6.25
2022-08-26T10:37:05.076Z,5.80
2022-08-26T10:39:26.754Z,6.32
2022-08-26T10:41:52.858Z,4.75
2022-08-26T10:44:16.623Z,5.97
2022-08-26T10:46:41.966Z,5.30
2022-08-26T10:49:08.121Z,5.78
2022-08-26T10:51:35.689Z,4.90
2022-08-26T10:54:00.337Z,4.10
2022-08-26T10:59:00.057Z,5.82
2022-08-26T11:01:44.041Z,4.90
2022-08-26T11:04:17.513Z,4.78
2022-08-26T11:06:41.861Z,5.40
2022-08-26T11:09:06.067Z,5.05
2022-08-26T11:11:46.999Z,4.70
2022-08-26T11:14:11.895Z,4.70
2022-08-26T11:16:42.984Z,4.43
2022-08-26T11:19:07.686Z,5.20
2022-08-26T11:21:50.816Z,5.55
2022-08-26T11:25:01.118Z,5.22
2022-08-26T11:27:54.595Z,4.88
2022-08-26T11:30:56.925Z,4.95
2022-08-26T11:33:48.940Z,5.28
2022-08-26T11:36:41.136Z,5.05
2022-08-26T11:39:05.242Z,4.90
2022-08-26T11:41:31.384Z,5.13
2022-08-26T11:43:55.458Z,5.45
2022-08-26T11:46:26.866Z,5.28
2022-08-26T11:48:50.179Z,5.57
2022-08-26T11:51:14.725Z,5.73
2022-08-26T11:53:39.253Z,4.95
2022-08-26T11:58:27.974Z,5.80
2022-08-26T12:00:52.750Z,5.78
2022-08-26T12:03:20.132Z,7.05
2022-08-26T12:05:47.881Z,5.25
2022-08-26T12:08:13.064Z,5.13
2022-08-26T12:10:36.554Z,5.50
2022-08-26T12:13:00.839Z,4.55
2022-08-26T12:15:24.237Z,5.40
2022-08-26T12:17:52.929Z,5.20
2022-08-26T12:20:45.863Z,5.07
2022-08-26T12:23:09.334Z,4.57
2022-08-26T12:25:36.161Z,5.40
2022-08-26T12:28:04.738Z,4.75
2022-08-26T12:30:28.502Z,5.22
2022-08-26T12:32:58.759Z,4.55
2022-08-26T12:35:23.901Z,6.15
2022-08-26T12:37:49.836Z,4.72
2022-08-26T12:40:28.907Z,4.30
2022-08-26T12:42:52.413Z,4.70
2022-08-26T12:45:16.293Z,6.97
2022-08-26T12:47:43.454Z,7.03
2022-08-26T12:50:09.157Z,5.72
2022-08-26T12:52:35.719Z,4.75
2022-08-26T12:55:00.292Z,6.80
2022-08-26T12:57:27.409Z,6.95
2022-08-26T12:59:50.706Z,4.70
2022-08-26T13:02:37.752Z,6.63
2022-08-26T13:05:01.185Z,5.60
2022-08-26T13:07:25.894Z,4.90
2022-08-26T13:09:51.358Z,4.57
2022-08-26T13:12:23.571Z,5.38
2022-08-26T13:14:47.177Z,6.25
2022-08-26T13:17:10.516Z,5.22
2022-08-26T13:19:33.777Z,6.10
2022-08-26T13:21:57.878Z,5.82
2022-08-26T13:24:23.143Z,4.78
2022-08-26T13:26:49.043Z,4.75
2022-08-26T13:29:12.431Z,4.80
2022-08-26T13:31:35.830Z,4.63
2022-08-26T13:34:00.412Z,5.55
2022-08-26T13:36:24.260Z,5.47
2022-08-26T13:38:48.451Z,3.92
2022-08-26T13:41:15.422Z,5.20
2022-08-26T13:43:41.426Z,6.40
2022-08-26T13:46:04.881Z,5.15
2022-08-26T13:48:28.210Z,4.73
2022-08-26T13:50:52.609Z,5.20
2022-08-26T13:55:39.049Z,4.68
2022-08-26T13:58:02.322Z,5.55
2022-08-26T14:00:27.171Z,5.43
2022-08-26T14:02:50.569Z,5.07
2022-08-26T14:05:14.074Z,4.30
2022-08-26T14:07:37.380Z,4.53
2022-08-26T14:10:01.358Z,4.70
2022-08-26T14:12:24.945Z,4.40
2022-08-26T14:14:48.332Z,5.75
2022-08-26T14:17:13.456Z,5.43
2022-08-26T14:19:36.725Z,4.95
2022-08-26T14:22:00.962Z,5.18
2022-08-26T14:24:24.414Z,5.28
2022-08-26T14:26:48.584Z,4.72
2022-08-26T14:29:14.710Z,5.82
2022-08-26T14:31:39.916Z,4.35
2022-08-26T14:34:05.768Z,4.28
2022-08-26T14:36:29.219Z,5.20
2022-08-26T14:38:52.491Z,4.77
2022-08-26T14:41:16.446Z,4.45
2022-08-26T14:43:40.607Z,4.68
2022-08-26T14:46:03.881Z,5.07
2022-08-26T14:48:27.243Z,5.70
2022-08-26T14:50:51.970Z,5.22
2022-08-26T14:53:32.861Z,4.97
2022-08-26T14:55:56.175Z,6.30
2022-08-26T14:58:19.401Z,6.28
2022-08-26T15:00:42.619Z,6.68
2022-08-26T15:03:06.143Z,6.38
2022-08-26T15:05:29.650Z,6.10
2022-08-26T15:07:54.302Z,4.55
2022-08-26T15:10:18.106Z,5.50
2022-08-26T15:12:41.954Z,4.72
2022-08-26T15:15:05.918Z,5.00
2022-08-26T15:17:29.911Z,5.53
2022-08-26T15:19:53.212Z,5.00
2022-08-26T15:22:16.537Z,5.43
2022-08-26T15:24:41.150Z,5.55
2022-08-26T15:27:04.715Z,5.88
2022-08-26T15:29:27.950Z,6.20
2022-08-26T15:31:51.337Z,4.22
2022-08-26T15:34:16.986Z,5.07
2022-08-26T15:36:42.689Z,4.80
2022-08-26T15:39:06.975Z,4.93
2022-08-26T15:41:34.804Z,5.85
2022-08-26T15:43:58.460Z,5.47
2022-08-26T15:46:21.735Z,5.88
2022-08-26T15:48:45.029Z,5.10
2022-08-26T15:51:08.379Z,4.45
2022-08-26T15:53:32.586Z,5.95
2022-08-26T15:58:21.065Z,6.32
2022-08-26T16:00:44.862Z,6.72
2022-08-26T16:03:08.109Z,7.55
2022-08-26T16:05:31.451Z,6.82
2022-08-26T16:07:55.067Z,6.33
2022-08-26T16:10:18.694Z,5.63
2022-08-26T16:12:42.158Z,6.18
2022-08-26T16:15:07.968Z,5.43
2022-08-26T16:17:31.189Z,6.95
2022-08-26T16:19:54.486Z,5.60
2022-08-26T16:22:17.805Z,4.83
2022-08-26T16:24:41.023Z,5.50
2022-08-26T16:27:04.435Z,5.03
2022-08-26T16:29:27.686Z,4.65
2022-08-26T16:31:53.364Z,5.13
2022-08-26T16:34:16.623Z,5.25
2022-08-26T16:36:39.970Z,4.63
2022-08-26T16:39:03.473Z,5.07
2022-08-26T16:41:31.357Z,5.40
2022-08-26T16:43:54.706Z,4.55
2022-08-26T16:46:18.752Z,6.38
2022-08-26T16:48:43.746Z,6.18
2022-08-26T16:51:07.330Z,4.70
2022-08-26T16:53:31.512Z,6.45
2022-08-26T16:55:55.188Z,6.35
2022-08-26T16:58:18.424Z,5.68
2022-08-26T17:00:41.813Z,5.68
2022-08-26T17:03:05.119Z,5.00
2022-08-26T17:05:29.907Z,5.70
2022-08-26T17:07:53.421Z,4.95
2022-08-26T17:10:16.679Z,4.90
2022-08-26T17:12:39.989Z,5.57
2022-08-26T17:15:03.754Z,4.95
2022-08-26T17:17:27.129Z,5.90
2022-08-26T17:19:50.345Z,5.25
2022-08-26T17:22:14.969Z,5.45
2022-08-26T17:24:38.226Z,5.07
2022-08-26T17:27:01.616Z,5.53
2022-08-26T17:29:24.818Z,6.15
2022-08-26T17:31:48.040Z,4.70
2022-08-26T17:34:11.385Z,6.22
2022-08-26T17:36:34.657Z,5.15
2022-08-26T17:38:59.577Z,6.05
2022-08-26T17:41:22.843Z,6.05
2022-08-26T17:43:46.227Z,5.87
2022-08-26T17:46:10.676Z,4.68
2022-08-26T17:48:34.014Z,5.30
2022-08-26T17:50:57.481Z,5.63
2022-08-26T17:53:20.769Z,4.93
2022-08-26T17:55:45.803Z,4.50
2022-08-26T17:58:09.223Z,5.35
2022-08-26T18:00:33.427Z,4.03
2022-08-26T18:02:56.803Z,6.72
2022-08-26T18:05:20.070Z,5.55
2022-08-26T18:07:43.993Z,5.18
2022-08-26T18:10:12.956Z,5.93
2022-08-26T18:12:38.010Z,4.95
2022-08-26T18:15:01.628Z,6.72
2022-08-26T18:17:24.996Z,5.10
2022-08-26T18:19:49.049Z,5.70
2022-08-26T18:22:12.301Z,5.32
2022-08-26T18:24:39.101Z,5.38
2022-08-26T18:27:02.346Z,6.00
2022-08-26T18:29:30.138Z,5.10
2022-08-26T18:31:53.444Z,6.28
2022-08-26T18:34:17.006Z,6.10
2022-08-26T18:36:40.928Z,5.37
2022-08-26T18:39:04.720Z,6.72
2022-08-26T18:41:29.399Z,5.20
2022-08-26T18:43:53.210Z,7.53
2022-08-26T18:46:17.954Z,5.57
2022-08-26T18:48:41.614Z,5.93
2022-08-26T18:51:05.170Z,5.97
2022-08-26T18:53:28.503Z,5.23
2022-08-26T18:55:52.064Z,5.13
2022-08-26T18:58:16.445Z,5.00
2022-08-26T19:03:04.369Z,4.45
2022-08-26T19:05:31.510Z,5.55
2022-08-26T19:07:56.514Z,5.10
2022-08-26T19:10:19.882Z,5.75
2022-08-26T19:12:43.882Z,6.25
2022-08-26T19:15:08.312Z,5.72
2022-08-26T19:19:55.974Z,6.15
2022-08-26T19:22:19.924Z,6.32
2022-08-26T19:24:43.185Z,6.85
2022-08-26T19:27:06.670Z,5.75
2022-08-26T19:29:31.446Z,6.28
2022-08-26T19:31:54.722Z,7.53
2022-08-26T19:34:20.998Z,5.50
2022-08-26T19:36:46.829Z,6.32
2022-08-26T19:39:10.171Z,6.72
2022-08-26T19:41:37.482Z,9.02
2022-08-26T19:44:01.817Z,6.88
2022-08-26T19:46:29.455Z,7.57
2022-08-26T19:48:55.719Z,7.40
2022-08-26T19:51:20.453Z,6.93
2022-08-26T19:53:45.283Z,8.45
2022-08-26T19:56:08.555Z,7.07
2022-08-26T19:58:31.827Z,6.95
2022-08-26T20:00:55.185Z,7.20
2022-08-26T20:03:18.506Z,6.93
2022-08-26T20:05:41.858Z,7.20
2022-08-26T20:08:05.391Z,7.47
2022-08-26T20:10:30.033Z,7.72
2022-08-26T20:12:53.448Z,7.75
2022-08-26T20:15:16.902Z,7.03
2022-08-26T20:17:40.171Z,6.83
2022-08-26T20:20:32.612Z,7.22
2022-08-26T20:22:57.220Z,6.40
2022-08-26T20:25:21.001Z,9.40
2022-08-26T20:27:46.495Z,6.38
2022-08-26T20:30:10.755Z,7.38
2022-08-26T20:32:35.682Z,6.65
2022-08-26T20:34:59.302Z,6.40
2022-08-26T20:37:22.608Z,8.67
2022-08-26T20:39:46.158Z,5.77
2022-08-26T20:42:19.899Z,6.43
2022-08-26T20:44:47.371Z,6.20
2022-08-26T20:47:19.228Z,6.28
2022-08-26T20:52:05.823Z,8.45
2022-08-26T20:54:29.206Z,7.80
2022-08-26T20:56:52.574Z,6.73
2022-08-26T21:01:42.437Z,7.88
2022-08-26T21:04:06.943Z,8.30
2022-08-26T21:06:30.500Z,8.02
2022-08-26T21:08:55.147Z,6.18
2022-08-26T21:11:18.432Z,7.20
2022-08-26T21:14:03.482Z,7.28
2022-08-26T21:16:25.090Z,11.05
2022-08-26T21:18:49.957Z,9.30
2022-08-26T21:21:13.292Z,8.38
2022-08-26T21:23:36.673Z,6.97
2022-08-26T21:26:02.670Z,8.00
2022-08-26T21:28:25.840Z,7.30
2022-08-26T21:30:49.153Z,8.07
2022-08-26T21:33:12.341Z,8.18
2022-08-26T21:35:37.029Z,8.10
2022-08-26T21:38:00.203Z,8.40
2022-08-26T21:40:23.448Z,9.30
2022-08-26T21:42:46.690Z,8.75
2022-08-26T21:45:11.771Z,9.18
2022-08-26T21:47:35.047Z,9.18
2022-08-26T21:49:58.261Z,8.30
2022-08-26T21:52:22.896Z,8.52
2022-08-26T21:54:49.158Z,8.43
2022-08-26T21:57:12.846Z,8.90
2022-08-26T21:59:36.114Z,9.80
2022-08-26T22:01:59.371Z,8.57
2022-08-26T22:04:22.814Z,9.33
2022-08-26T22:06:47.734Z,8.32
2022-08-26T22:09:12.358Z,7.05
2022-08-26T22:11:35.548Z,9.00
2022-08-26T22:13:58.782Z,10.68
2022-08-26T22:16:22.335Z,9.55
2022-08-26T22:18:45.849Z,10.37
2022-08-26T22:21:10.170Z,10.30
2022-08-26T22:23:33.431Z,9.13
2022-08-26T22:25:58.495Z,9.38
2022-08-26T22:28:21.830Z,10.95
2022-08-26T22:30:45.204Z,9.23
2022-08-26T22:33:08.407Z,9.73
2022-08-26T22:35:31.790Z,11.25
2022-08-26T22:37:55.033Z,9.90
2022-08-26T22:40:20.559Z,9.65
2022-08-26T22:42:57.987Z,7.95
2022-08-26T22:45:23.656Z,8.40
2022-08-26T22:47:46.883Z,9.00
2022-08-26T22:50:10.414Z,9.57
2022-08-26T22:52:33.605Z,8.80
2022-08-26T22:54:56.835Z,9.65
2022-08-26T22:57:20.149Z,8.35
2022-08-26T22:59:44.749Z,7.95
2022-08-26T23:02:08.094Z,8.57
2022-08-26T23:04:35.231Z,6.82
2022-08-26T23:06:58.967Z,5.90
2022-08-26T23:09:22.289Z,7.03
2022-08-26T23:11:46.318Z,7.70
2022-08-26T23:14:09.656Z,7.70
2022-08-26T23:16:39.107Z,6.80
2022-08-26T23:19:02.685Z,7.60
2022-08-26T23:21:25.954Z,7.53
2022-08-26T23:23:49.155Z,6.38
2022-08-26T23:26:16.713Z,7.97
2022-08-26T23:28:41.040Z,7.85
2022-08-26T23:31:04.246Z,6.40
2022-08-26T23:33:48.813Z,8.23
2022-08-26T23:36:15.787Z,6.63
2022-08-26T23:38:41.661Z,7.90
2022-08-26T23:41:04.874Z,8.27
2022-08-26T23:43:29.500Z,8.32
2022-08-26T23:45:52.753Z,9.40
2022-08-26T23:48:16.043Z,8.60
2022-08-26T23:51:01.529Z,9.23
2022-08-26T23:53:24.806Z,9.20
2022-08-26T23:55:49.214Z,9.98
2022-08-26T23:58:12.498Z,10.88
